Time;durP1;ratioP1;P1;durP2;ratioP2;P2;SDS_P1;SDS_P2;PMS_P1;PMS_P2;Temp;Humidity;BMP_temperature;BMP_pressure;BME280_temperature;BME280_humidity;BME280_pressure;Samples;Min_cycle;Max_cycle;Signal;HPM_P1;HPM_P2
2022/06/08 00:00:05;;;;;;;1.02;1.00;;;18.80;81.10;;;;;;935884;153;27452;-73
2022/06/08 00:02:32;;;;;;;1.17;1.00;;;18.80;81.20;;;;;;936081;150;27474;-73
2022/06/08 00:04:58;;;;;;;1.20;1.10;;;18.90;81.50;;;;;;936857;151;27509;-73
2022/06/08 00:07:25;;;;;;;1.17;1.07;;;18.80;81.60;;;;;;936515;150;27344;-73
2022/06/08 00:09:51;;;;;;;2.58;1.17;;;18.80;82.00;;;;;;936722;150;27403;-73
2022/06/08 00:12:18;;;;;;;1.50;1.40;;;18.80;82.10;;;;;;936183;150;27342;-74
2022/06/08 00:14:45;;;;;;;1.62;1.40;;;18.80;82.20;;;;;;937131;151;27462;-73
2022/06/08 00:17:11;;;;;;;1.12;1.12;;;18.80;82.10;;;;;;936101;150;28399;-73
2022/06/08 00:19:38;;;;;;;1.12;1.12;;;18.80;82.00;;;;;;937009;151;27301;-74
2022/06/08 00:22:04;;;;;;;1.30;1.20;;;18.80;82.00;;;;;;936582;150;27446;-73
2022/06/08 00:24:31;;;;;;;1.30;1.17;;;18.70;82.00;;;;;;937048;150;27446;-73
2022/06/08 00:26:57;;;;;;;1.63;1.40;;;18.70;82.10;;;;;;937232;150;27389;-73
2022/06/08 00:29:24;;;;;;;1.50;1.40;;;18.70;82.50;;;;;;936580;150;27415;-73
2022/06/08 00:31:51;;;;;;;1.30;1.20;;;18.60;82.80;;;;;;936431;153;27920;-73
2022/06/08 00:34:18;;;;;;;1.10;1.10;;;18.60;83.20;;;;;;936559;150;27322;-73
2022/06/08 00:36:44;;;;;;;1.70;1.57;;;18.60;83.70;;;;;;936414;150;27289;-73
2022/06/08 00:39:10;;;;;;;1.15;1.05;;;18.50;83.20;;;;;;937207;150;27396;-74
2022/06/08 00:41:40;;;;;;;1.27;1.02;;;18.50;84.30;;;;;;936838;150;27483;-73
2022/06/08 00:44:09;;;;;;;2.92;1.35;;;18.50;84.60;;;;;;934767;150;27842;-73
2022/06/08 00:46:36;;;;;;;1.30;1.20;;;18.50;84.80;;;;;;935866;150;27369;-73
2022/06/08 00:49:05;;;;;;;2.55;1.47;;;18.50;84.80;;;;;;936331;150;27445;-73
2022/06/08 00:51:32;;;;;;;3.08;1.30;;;18.50;84.80;;;;;;935158;150;27404;-73
2022/06/08 00:53:58;;;;;;;2.92;1.72;;;18.50;84.80;;;;;;937667;151;28499;-73
2022/06/08 00:56:27;;;;;;;1.50;1.40;;;18.50;84.80;;;;;;936691;153;27341;-74
2022/06/08 00:58:54;;;;;;;1.98;1.37;;;18.40;84.90;;;;;;934327;153;27332;-73
2022/06/08 01:01:21;;;;;;;3.72;2.37;;;18.40;85.00;;;;;;936087;151;28018;-73
2022/06/08 01:03:47;;;;;;;1.65;1.20;;;18.20;85.30;;;;;;938269;150;27378;-73
2022/06/08 01:06:16;;;;;;;1.55;1.45;;;18.20;85.40;;;;;;937726;151;27321;-73
2022/06/08 01:08:43;;;;;;;1.40;1.30;;;18.10;85.80;;;;;;937694;150;27353;-73
2022/06/08 01:11:37;;;;;;;2.30;1.70;;;18.10;86.20;;;;;;933528;150;27405;-73
2022/06/08 01:14:03;;;;;;;2.47;1.57;;;18.00;86.40;;;;;;936639;151;27462;-73
2022/06/08 01:16:30;;;;;;;1.47;1.37;;;17.90;86.40;;;;;;936016;151;27388;-73
2022/06/08 01:18:56;;;;;;;1.60;1.50;;;17.80;87.00;;;;;;937094;150;27441;-73
2022/06/08 01:21:23;;;;;;;1.70;1.60;;;17.80;87.50;;;;;;937534;151;27450;-73
2022/06/08 01:23:49;;;;;;;1.50;1.40;;;17.70;87.60;;;;;;937960;151;27442;-73
2022/06/08 01:26:22;;;;;;;2.07;1.87;;;17.60;88.10;;;;;;937107;151;27377;-73
2022/06/08 01:28:49;;;;;;;1.80;1.60;;;17.60;88.60;;;;;;936777;151;27371;-73
2022/06/08 01:31:21;;;;;;;1.60;1.50;;;17.60;89.00;;;;;;935722;151;27465;-73
2022/06/08 01:34:11;;;;;;;2.40;1.70;;;17.50;89.40;;;;;;936089;151;27379;-73
2022/06/08 01:36:49;;;;;;;1.70;1.60;;;17.40;89.70;;;;;;920750;151;27376;-73
2022/06/08 01:39:31;;;;;;;1.70;1.60;;;17.40;89.90;;;;;;937847;151;27394;-73
2022/06/08 01:42:07;;;;;;;2.20;1.60;;;17.40;90.20;;;;;;937714;150;27374;-73
2022/06/08 01:48:13;;;;;;;1.90;1.70;;;17.20;90.70;;;;;;936653;151;27346;-73
2022/06/08 01:50:49;;;;;;;1.60;1.50;;;17.20;90.70;;;;;;937900;151;27353;-73
2022/06/08 01:53:15;;;;;;;2.57;1.70;;;17.20;91.10;;;;;;937174;151;27417;-73
2022/06/08 01:55:50;;;;;;;1.82;1.72;;;17.20;91.50;;;;;;937086;151;27453;-73
2022/06/08 01:58:20;;;;;;;1.83;1.73;;;17.20;91.90;;;;;;937059;151;27445;-73
2022/06/08 02:00:47;;;;;;;2.37;1.87;;;17.20;92.10;;;;;;935485;151;27313;-73
2022/06/08 02:03:19;;;;;;;1.63;1.53;;;17.20;92.30;;;;;;937753;151;27421;-74
2022/06/08 02:05:57;;;;;;;1.60;1.50;;;17.20;92.50;;;;;;935147;151;27384;-73
2022/06/08 02:08:39;;;;;;;1.87;1.57;;;17.20;92.70;;;;;;938112;150;27383;-73
2022/06/08 02:11:33;;;;;;;2.15;1.70;;;17.30;92.80;;;;;;937375;151;27337;-73
2022/06/08 02:14:06;;;;;;;2.60;1.90;;;17.30;92.80;;;;;;937366;151;27352;-73
2022/06/08 02:16:44;;;;;;;2.05;1.95;;;17.30;92.70;;;;;;936564;151;27444;-73
2022/06/08 02:19:23;;;;;;;2.17;1.80;;;17.30;92.80;;;;;;936137;151;27384;-73
2022/06/08 02:21:52;;;;;;;5.28;2.55;;;17.30;92.90;;;;;;923313;153;27383;-73
2022/06/08 02:24:34;;;;;;;1.80;1.70;;;17.30;92.80;;;;;;937200;151;27378;-73
2022/06/08 02:27:18;;;;;;;2.10;1.90;;;17.30;93.00;;;;;;936943;151;27309;-73
2022/06/08 02:29:45;;;;;;;1.97;1.77;;;17.30;93.00;;;;;;937986;151;27340;-73
2022/06/08 02:34:59;;;;;;;2.07;1.83;;;17.30;93.10;;;;;;937516;151;27395;-73
2022/06/08 02:37:26;;;;;;;1.90;1.80;;;17.30;93.00;;;;;;937876;151;27368;-73
2022/06/08 02:39:56;;;;;;;1.80;1.70;;;17.30;93.30;;;;;;937586;151;27670;-73
2022/06/08 02:42:25;;;;;;;1.70;1.60;;;17.20;93.00;;;;;;936535;150;27426;-73
2022/06/08 02:44:52;;;;;;;2.40;2.03;;;17.20;92.60;;;;;;937674;151;27320;-73
2022/06/08 02:47:30;;;;;;;1.80;1.70;;;17.20;93.00;;;;;;937589;151;27328;-73
2022/06/08 02:49:48;;;;;;;1.95;1.85;;;17.10;93.00;;;;;;936237;151;27496;-73
2022/06/08 02:52:15;;;;;;;4.00;1.87;;;17.10;93.10;;;;;;936543;151;27529;-73
2022/06/08 02:54:41;;;;;;;1.75;1.65;;;17.10;93.30;;;;;;935814;153;27402;-73
2022/06/08 02:57:29;;;;;;;1.73;1.63;;;17.00;93.50;;;;;;937362;150;27365;-74
2022/06/08 02:59:59;;;;;;;2.30;2.10;;;17.00;93.80;;;;;;936451;150;27369;-74
2022/06/08 03:02:33;;;;;;;2.57;1.77;;;17.00;93.90;;;;;;936669;150;27910;-74
2022/06/08 03:05:18;;;;;;;4.23;2.20;;;17.00;94.10;;;;;;936078;150;27362;-74
2022/06/08 03:07:50;;;;;;;2.13;2.03;;;16.90;94.20;;;;;;936882;150;27522;-74
2022/06/08 03:10:16;;;;;;;2.00;1.90;;;17.00;94.30;;;;;;936388;150;27495;-74
2022/06/08 03:12:43;;;;;;;2.20;2.00;;;16.90;94.30;;;;;;936606;152;27945;-75
2022/06/08 03:15:10;;;;;;;2.23;2.03;;;16.90;94.40;;;;;;935869;150;27478;-74
2022/06/08 03:17:36;;;;;;;1.97;1.80;;;16.90;94.50;;;;;;937694;150;27339;-75
2022/06/08 03:20:04;;;;;;;2.10;1.70;;;16.90;94.60;;;;;;937172;153;27432;-74
2022/06/08 03:22:29;;;;;;;2.27;2.07;;;16.90;94.60;;;;;;936588;150;27386;-74
2022/06/08 03:24:56;;;;;;;2.47;2.10;;;16.90;94.70;;;;;;936294;150;27375;-74
2022/06/08 03:27:23;;;;;;;1.90;1.80;;;16.90;94.90;;;;;;936892;150;27357;-74
2022/06/08 03:29:49;;;;;;;4.30;2.23;;;16.90;95.10;;;;;;936298;151;27306;-74
2022/06/08 03:32:16;;;;;;;2.17;1.92;;;16.90;95.30;;;;;;936954;150;27953;-74
2022/06/08 03:34:42;;;;;;;2.57;2.00;;;17.00;95.40;;;;;;936968;150;27375;-74
2022/06/08 03:37:09;;;;;;;2.45;2.10;;;17.00;95.70;;;;;;937814;150;27373;-74
2022/06/08 03:39:36;;;;;;;2.33;2.12;;;17.00;95.60;;;;;;937483;150;27391;-75
2022/06/08 03:42:02;;;;;;;2.35;2.00;;;17.00;95.80;;;;;;937129;150;27337;-74
2022/06/08 03:44:29;;;;;;;1.90;1.80;;;17.10;95.80;;;;;;936581;150;27384;-74
2022/06/08 03:46:55;;;;;;;2.00;1.90;;;17.10;95.90;;;;;;937171;150;27365;-74
2022/06/08 03:49:22;;;;;;;3.42;2.10;;;17.20;96.30;;;;;;935361;150;27380;-75
2022/06/08 03:51:49;;;;;;;2.17;2.02;;;17.20;96.00;;;;;;936559;150;27481;-74
2022/06/08 03:54:16;;;;;;;3.83;1.90;;;17.30;96.00;;;;;;937368;152;27318;-74
2022/06/08 03:56:42;;;;;;;2.73;2.10;;;17.30;96.00;;;;;;938643;150;27489;-75
2022/06/08 03:59:08;;;;;;;2.50;2.30;;;17.40;96.00;;;;;;938462;151;27442;-74
2022/06/08 04:01:35;;;;;;;3.17;2.10;;;17.40;96.10;;;;;;937475;151;27477;-74
2022/06/08 04:04:01;;;;;;;3.85;2.67;;;17.50;96.20;;;;;;937669;151;27448;-74
2022/06/08 04:06:28;;;;;;;2.00;1.90;;;17.50;96.20;;;;;;937654;151;27404;-74
2022/06/08 04:08:55;;;;;;;2.17;2.00;;;17.60;96.20;;;;;;937429;150;27844;-75
2022/06/08 04:11:21;;;;;;;2.00;1.67;;;17.60;96.60;;;;;;936961;151;27426;-74
2022/06/08 04:13:48;;;;;;;2.20;2.00;;;17.70;96.30;;;;;;938437;150;27356;-74
2022/06/08 04:16:15;;;;;;;1.95;1.67;;;17.80;96.30;;;;;;938324;150;27402;-75
2022/06/08 04:18:41;;;;;;;2.20;2.10;;;17.90;96.40;;;;;;938415;153;27799;-74
2022/06/08 04:21:08;;;;;;;1.92;1.70;;;18.00;96.30;;;;;;937599;151;27341;-74
2022/06/08 04:23:34;;;;;;;2.87;1.90;;;18.10;96.30;;;;;;938096;151;27367;-74
2022/06/08 04:26:01;;;;;;;2.12;1.92;;;18.20;96.30;;;;;;937331;151;27316;-74
2022/06/08 04:28:27;;;;;;;1.85;1.75;;;18.30;96.50;;;;;;937923;151;27448;-74
2022/06/08 04:30:54;;;;;;;2.33;1.57;;;18.40;96.50;;;;;;936566;151;27466;-75
2022/06/08 04:33:21;;;;;;;2.33;2.00;;;18.50;96.50;;;;;;937856;151;27353;-75
2022/06/08 04:35:47;;;;;;;2.27;1.90;;;18.60;96.40;;;;;;937872;151;27285;-75
2022/06/08 04:38:14;;;;;;;2.10;2.00;;;18.70;96.20;;;;;;938507;151;27352;-74
2022/06/08 04:40:40;;;;;;;1.90;1.80;;;18.90;95.70;;;;;;938455;151;27822;-74
2022/06/08 04:43:07;;;;;;;1.98;1.80;;;19.00;95.50;;;;;;938236;151;27394;-75
2022/06/08 04:45:35;;;;;;;2.70;1.90;;;19.10;95.30;;;;;;938478;153;27731;-74
2022/06/08 04:48:00;;;;;;;1.80;1.70;;;19.20;95.00;;;;;;937628;151;27340;-75
2022/06/08 04:50:27;;;;;;;1.82;1.72;;;19.30;94.80;;;;;;938441;151;27329;-75
2022/06/08 04:52:53;;;;;;;1.57;1.40;;;19.40;94.60;;;;;;938027;153;27466;-75
2022/06/08 04:55:20;;;;;;;2.12;1.92;;;19.40;94.20;;;;;;938416;153;27801;-75
2022/06/08 04:57:46;;;;;;;1.87;1.72;;;19.50;93.80;;;;;;938045;151;27363;-74
2022/06/08 05:00:13;;;;;;;2.65;1.90;;;19.50;93.60;;;;;;935701;151;27486;-75
2022/06/08 05:02:47;;;;;;;1.80;1.70;;;19.60;93.50;;;;;;935907;151;27344;-75
2022/06/08 05:05:27;;;;;;;1.72;1.62;;;19.60;93.30;;;;;;937767;151;27352;-74
2022/06/08 05:07:53;;;;;;;1.37;1.27;;;19.70;93.30;;;;;;933414;150;27431;-75
2022/06/08 05:10:20;;;;;;;1.32;1.32;;;19.80;93.30;;;;;;938314;153;27293;-75
2022/06/08 05:12:46;;;;;;;2.25;1.70;;;19.80;93.40;;;;;;938066;151;27352;-75
2022/06/08 05:15:13;;;;;;;1.70;1.60;;;19.90;93.50;;;;;;938349;153;27348;-74
2022/06/08 05:17:40;;;;;;;1.80;1.57;;;20.00;94.00;;;;;;938218;150;27336;-75
2022/06/08 05:20:06;;;;;;;1.85;1.75;;;20.20;94.50;;;;;;938070;151;27470;-75
2022/06/08 05:22:33;;;;;;;2.05;1.57;;;20.40;95.00;;;;;;938063;151;27437;-75
2022/06/08 05:25:00;;;;;;;5.67;1.60;;;20.70;95.20;;;;;;938297;150;27328;-75
2022/06/08 05:27:26;;;;;;;2.27;1.77;;;21.10;95.00;;;;;;937640;151;27880;-75
2022/06/08 05:29:53;;;;;;;1.92;1.55;;;21.40;94.40;;;;;;938317;150;27336;-74
2022/06/08 05:32:20;;;;;;;2.25;1.90;;;21.80;93.70;;;;;;937160;151;27396;-75
2022/06/08 05:34:46;;;;;;;3.80;1.80;;;22.10;92.90;;;;;;938229;151;27375;-75
2022/06/08 05:37:12;;;;;;;3.17;1.80;;;22.50;93.00;;;;;;937606;151;27415;-75
2022/06/08 05:39:39;;;;;;;1.87;1.57;;;22.90;93.80;;;;;;938136;153;27437;-75
2022/06/08 05:42:06;;;;;;;1.37;1.27;;;23.50;93.50;;;;;;937667;151;27314;-76
2022/06/08 05:44:32;;;;;;;1.60;1.50;;;24.10;92.90;;;;;;937867;151;27802;-75
2022/06/08 05:46:59;;;;;;;1.65;1.50;;;24.80;91.40;;;;;;937990;150;27462;-75
2022/06/08 05:49:25;;;;;;;3.10;1.42;;;25.40;88.60;;;;;;938049;153;27354;-75
2022/06/08 05:51:53;;;;;;;1.15;1.15;;;25.90;82.90;;;;;;937807;151;27333;-76
2022/06/08 05:54:19;;;;;;;1.47;1.37;;;26.30;78.30;;;;;;937788;151;27393;-75
2022/06/08 05:56:45;;;;;;;1.65;1.20;;;26.50;74.50;;;;;;937087;150;27342;-75
2022/06/08 05:59:12;;;;;;;1.45;1.30;;;26.60;72.00;;;;;;937613;150;27456;-75
2022/06/08 06:01:38;;;;;;;3.75;1.37;;;26.60;70.70;;;;;;936714;150;27450;-76
2022/06/08 06:04:07;;;;;;;5.65;1.60;;;26.50;70.30;;;;;;936774;150;27342;-76
2022/06/08 06:06:32;;;;;;;4.08;1.62;;;26.50;69.80;;;;;;937131;150;27410;-75
2022/06/08 06:08:58;;;;;;;1.40;1.30;;;26.40;69.10;;;;;;937557;150;27377;-75
2022/06/08 06:11:25;;;;;;;2.08;1.55;;;26.30;68.70;;;;;;936992;149;27443;-74
2022/06/08 06:13:51;;;;;;;1.30;1.25;;;26.30;68.60;;;;;;936146;150;27397;-75
2022/06/08 06:16:18;;;;;;;2.08;1.20;;;26.20;68.40;;;;;;937403;150;27475;-78
2022/06/08 06:18:45;;;;;;;3.00;1.50;;;26.20;68.40;;;;;;937560;153;27295;-76
2022/06/08 06:21:17;;;;;;;1.65;1.55;;;26.10;68.00;;;;;;937696;150;27597;-75
2022/06/08 06:23:44;;;;;;;2.12;1.82;;;26.10;67.50;;;;;;937073;150;27376;-75
2022/06/08 06:26:10;;;;;;;2.10;1.60;;;26.00;67.20;;;;;;937246;152;27393;-76
2022/06/08 06:28:37;;;;;;;2.08;1.60;;;25.90;67.00;;;;;;937245;150;27373;-75
2022/06/08 06:31:03;;;;;;;1.87;1.72;;;25.90;67.10;;;;;;936368;150;27330;-75
2022/06/08 06:33:30;;;;;;;2.95;1.80;;;25.90;67.80;;;;;;936834;150;27334;-75
2022/06/08 06:35:57;;;;;;;3.02;2.10;;;26.00;68.70;;;;;;937003;150;27345;-75
2022/06/08 06:38:23;;;;;;;4.40;2.25;;;26.20;70.20;;;;;;936942;150;27369;-75
2022/06/08 06:40:50;;;;;;;2.70;2.22;;;26.50;71.50;;;;;;937547;150;27376;-76
2022/06/08 06:43:17;;;;;;;2.95;1.90;;;27.20;74.30;;;;;;936796;151;27334;-76
2022/06/08 06:45:43;;;;;;;7.28;2.20;;;28.00;75.50;;;;;;935862;150;27878;-76
2022/06/08 06:48:10;;;;;;;2.20;1.52;;;28.90;74.50;;;;;;936440;150;27483;-76
2022/06/08 06:50:36;;;;;;;2.58;1.27;;;29.90;73.30;;;;;;937516;151;27458;-76
2022/06/08 06:53:03;;;;;;;1.32;1.22;;;30.80;68.90;;;;;;937186;150;27474;-77
2022/06/08 06:55:29;;;;;;;2.92;1.67;;;31.70;65.00;;;;;;937631;150;27531;-77
2022/06/08 06:57:57;;;;;;;1.22;1.12;;;32.30;61.80;;;;;;936957;153;27318;-76
2022/06/08 07:00:22;;;;;;;2.42;1.60;;;32.70;59.30;;;;;;937052;151;27435;-77
2022/06/08 07:02:49;;;;;;;1.65;1.10;;;32.90;57.70;;;;;;937163;150;27361;-76
2022/06/08 07:05:16;;;;;;;4.45;1.62;;;33.00;56.60;;;;;;937237;150;27449;-77
2022/06/08 07:07:42;;;;;;;4.20;2.00;;;33.00;55.80;;;;;;935795;150;27931;-77
2022/06/08 07:10:09;;;;;;;3.92;1.77;;;32.90;55.20;;;;;;936806;150;27444;-75
2022/06/08 07:12:35;;;;;;;5.80;2.85;;;32.70;54.60;;;;;;937143;150;27334;-77
2022/06/08 07:15:02;;;;;;;1.92;1.07;;;32.60;54.30;;;;;;936217;150;27346;-76
2022/06/08 07:17:29;;;;;;;2.50;1.22;;;32.30;53.90;;;;;;937112;153;27370;-75
2022/06/08 07:19:55;;;;;;;2.58;1.95;;;32.00;53.90;;;;;;936587;150;27469;-77
2022/06/08 07:22:22;;;;;;;1.42;1.10;;;31.70;54.00;;;;;;936860;150;27279;-77
2022/06/08 07:24:48;;;;;;;4.67;2.00;;;31.50;54.20;;;;;;936980;151;27426;-76
2022/06/08 07:27:16;;;;;;;2.17;1.42;;;31.30;54.40;;;;;;937520;150;27330;-76
2022/06/08 07:29:42;;;;;;;2.90;1.30;;;31.00;54.50;;;;;;937007;150;27310;-76
2022/06/08 07:32:08;;;;;;;2.47;1.42;;;30.90;54.50;;;;;;937369;151;27495;-77
2022/06/08 07:34:35;;;;;;;1.20;1.00;;;30.80;55.30;;;;;;936685;151;27790;-77
2022/06/08 07:37:01;;;;;;;3.55;1.65;;;31.00;56.60;;;;;;936684;151;27337;-77
2022/06/08 07:39:28;;;;;;;3.30;1.85;;;31.40;56.90;;;;;;937175;150;27334;-77
2022/06/08 07:41:55;;;;;;;4.95;2.27;;;31.80;56.50;;;;;;936436;150;27368;-76
2022/06/08 07:44:21;;;;;;;1.77;1.60;;;32.30;55.60;;;;;;937266;153;27494;-76
2022/06/08 07:46:48;;;;;;;1.92;1.02;;;32.80;54.30;;;;;;936380;150;27378;-77
2022/06/08 07:51:59;;;;;;;3.02;1.70;;;33.60;53.50;;;;;;936828;153;26480;-78
2022/06/08 07:54:26;;;;;;;1.70;1.12;;;34.20;53.80;;;;;;936123;150;26357;-77
2022/06/08 07:56:53;;;;;;;1.95;1.07;;;34.80;53.20;;;;;;937870;151;26310;-77
2022/06/08 07:59:19;;;;;;;1.25;1.00;;;35.50;52.50;;;;;;938317;150;26460;-78
2022/06/08 08:01:46;;;;;;;1.30;0.60;;;36.10;51.70;;;;;;937002;153;26387;-79
2022/06/08 08:04:12;;;;;;;1.95;0.80;;;36.60;49.80;;;;;;938452;150;26345;-78
2022/06/08 08:06:39;;;;;;;2.27;1.20;;;36.80;47.80;;;;;;937516;151;26195;-78
2022/06/08 08:09:09;;;;;;;1.77;0.82;;;36.90;46.90;;;;;;938041;150;26279;-77
2022/06/08 08:11:32;;;;;;;1.67;1.45;;;37.00;47.30;;;;;;936729;153;26385;-75
2022/06/08 08:13:58;;;;;;;1.25;0.90;;;37.20;47.80;;;;;;937927;153;26294;-78
2022/06/08 08:16:25;;;;;;;1.10;0.82;;;37.60;47.30;;;;;;938278;153;26345;-79
2022/06/08 08:18:52;;;;;;;1.37;1.00;;;38.10;46.90;;;;;;938554;150;26226;-78
2022/06/08 08:21:18;;;;;;;1.72;0.80;;;38.50;45.90;;;;;;936835;153;26295;-78
2022/06/08 08:23:45;;;;;;;1.27;0.72;;;38.90;45.30;;;;;;938210;153;26211;-76
2022/06/08 08:26:11;;;;;;;1.42;0.65;;;39.20;44.20;;;;;;937646;153;26298;-79
2022/06/08 08:28:38;;;;;;;1.40;0.80;;;39.50;43.20;;;;;;937957;151;27764;-76
2022/06/08 08:31:05;;;;;;;2.02;0.90;;;39.60;42.20;;;;;;938728;151;26340;-78
2022/06/08 08:33:31;;;;;;;4.62;1.07;;;39.70;42.50;;;;;;938537;153;26240;-78
2022/06/08 08:35:58;;;;;;;2.55;0.80;;;39.90;42.50;;;;;;938267;153;26279;-78
2022/06/08 08:38:24;;;;;;;1.42;0.60;;;40.30;42.40;;;;;;938444;153;26389;-75
2022/06/08 08:40:54;;;;;;;2.37;0.90;;;40.70;41.90;;;;;;937921;153;26293;-78
2022/06/08 08:43:20;;;;;;;2.80;1.00;;;41.20;41.20;;;;;;937697;151;26386;-78
2022/06/08 08:46:21;;;;;;;1.45;0.80;;;41.60;40.60;;;;;;938062;150;26317;-78
2022/06/08 08:48:59;;;;;;;1.02;0.80;;;42.00;39.90;;;;;;937948;150;26215;-79
2022/06/08 08:51:32;;;;;;;1.27;0.75;;;42.40;40.30;;;;;;937519;153;26377;-79
2022/06/08 08:54:30;;;;;;;6.92;1.30;;;42.80;39.00;;;;;;934412;153;26262;-78
2022/06/08 08:56:56;;;;;;;2.95;0.85;;;43.10;37.90;;;;;;937587;153;26379;-78
2022/06/08 08:59:22;;;;;;;1.77;0.95;;;43.20;37.30;;;;;;937308;153;26295;-79
2022/06/08 09:01:51;;;;;;;2.58;1.10;;;43.20;36.40;;;;;;938307;153;26315;-78
2022/06/08 09:04:22;;;;;;;1.45;1.00;;;43.10;35.70;;;;;;938076;153;26340;-78
2022/06/08 09:06:48;;;;;;;2.02;1.00;;;42.70;34.90;;;;;;937710;150;26219;-79
2022/06/08 09:09:15;;;;;;;2.72;0.82;;;42.20;34.50;;;;;;937681;150;26305;-76
2022/06/08 09:11:41;;;;;;;1.80;1.05;;;41.60;34.40;;;;;;936954;153;26303;-78
2022/06/08 09:14:22;;;;;;;2.15;1.07;;;41.00;34.40;;;;;;937725;153;26280;-78
2022/06/08 09:16:49;;;;;;;1.98;0.70;;;40.20;34.40;;;;;;937785;151;26340;-79
2022/06/08 09:19:22;;;;;;;2.52;1.30;;;39.30;34.70;;;;;;937889;153;27354;-79
2022/06/08 09:21:51;;;;;;;1.40;0.65;;;38.50;35.30;;;;;;938042;153;26380;-75
2022/06/08 09:24:23;;;;;;;1.85;0.88;;;38.00;36.10;;;;;;938512;153;27389;-78
2022/06/08 09:26:50;;;;;;;1.60;1.00;;;37.60;36.50;;;;;;934609;153;26237;-77
2022/06/08 09:29:20;;;;;;;1.80;0.93;;;37.40;37.00;;;;;;937875;150;26255;-78
2022/06/08 09:31:46;;;;;;;1.17;0.78;;;37.30;37.20;;;;;;936905;153;26365;-77
2022/06/08 09:34:16;;;;;;;5.92;1.40;;;37.20;37.10;;;;;;938831;151;26285;-77
2022/06/08 09:36:42;;;;;;;2.72;1.22;;;37.10;36.70;;;;;;936825;150;26348;-78
2022/06/08 09:39:12;;;;;;;1.15;0.62;;;36.90;36.50;;;;;;938514;150;27839;-76
2022/06/08 09:41:38;;;;;;;0.55;0.50;;;36.70;36.40;;;;;;937281;150;27366;-78
2022/06/08 09:44:20;;;;;;;2.22;1.07;;;36.40;36.10;;;;;;938049;153;27398;-76
2022/06/08 09:52:50;;;;;;;2.30;0.80;;;35.70;37.20;;;;;;938363;153;27496;-77
2022/06/08 09:55:25;;;;;;;1.35;0.80;;;35.60;37.40;;;;;;937303;150;27464;-78
2022/06/08 09:57:58;;;;;;;1.40;1.00;;;35.50;37.40;;;;;;938313;153;27406;-78
2022/06/08 10:00:37;;;;;;;0.75;0.62;;;35.50;37.40;;;;;;936927;150;27442;-79
2022/06/08 10:03:41;;;;;;;1.27;0.72;;;35.50;37.70;;;;;;937293;153;26263;-78
2022/06/08 10:06:13;;;;;;;2.35;0.78;;;35.60;37.80;;;;;;937754;150;27417;-79
2022/06/08 10:08:45;;;;;;;3.27;1.02;;;35.70;37.50;;;;;;937425;150;26313;-78
2022/06/08 10:11:39;;;;;;;1.62;0.82;;;35.80;37.50;;;;;;903498;153;26307;-78
2022/06/08 10:14:02;;;;;;;2.90;1.00;;;35.90;37.00;;;;;;937724;153;27407;-78
2022/06/08 10:16:29;;;;;;;1.45;1.10;;;35.90;36.30;;;;;;925078;150;27410;-77
2022/06/08 10:18:55;;;;;;;1.12;0.85;;;35.70;36.00;;;;;;937257;150;27350;-78
2022/06/08 10:21:22;;;;;;;1.67;0.98;;;35.40;35.90;;;;;;937737;150;27407;-76
2022/06/08 10:23:58;;;;;;;2.58;1.02;;;35.00;36.00;;;;;;937124;150;27451;-78
2022/06/08 10:26:30;;;;;;;1.42;0.65;;;34.60;36.20;;;;;;937140;150;27388;-78
2022/06/08 10:29:15;;;;;;;1.22;0.50;;;34.20;36.40;;;;;;938218;150;27349;-78
2022/06/08 10:32:03;;;;;;;0.62;0.55;;;33.70;36.90;;;;;;936930;150;27442;-77
2022/06/08 10:34:32;;;;;;;2.55;0.82;;;33.20;36.90;;;;;;937704;151;27467;-78
2022/06/08 10:36:58;;;;;;;2.37;0.98;;;32.70;37.30;;;;;;937292;150;27361;-78
2022/06/08 10:39:23;;;;;;;1.92;0.90;;;32.30;37.70;;;;;;938057;151;27395;-76
2022/06/08 10:44:58;;;;;;;1.07;0.95;;;31.70;38.60;;;;;;938046;152;27357;-75
2022/06/08 10:47:26;;;;;;;2.50;0.85;;;31.30;39.10;;;;;;937335;151;27404;-78
2022/06/08 10:49:55;;;;;;;1.85;0.85;;;31.20;39.60;;;;;;938233;151;28597;-77
2022/06/08 10:52:22;;;;;;;1.35;0.78;;;31.10;40.30;;;;;;935870;153;27465;-77
2022/06/08 10:54:58;;;;;;;1.60;0.80;;;31.10;40.50;;;;;;937132;151;27342;-77
2022/06/08 10:57:42;;;;;;;2.05;0.95;;;31.20;40.60;;;;;;937054;150;27509;-77
2022/06/08 11:00:19;;;;;;;0.98;0.70;;;31.20;40.20;;;;;;935781;150;27350;-77
2022/06/08 11:03:04;;;;;;;1.25;0.70;;;31.20;39.90;;;;;;937284;153;27431;-76
2022/06/08 11:05:36;;;;;;;1.65;0.80;;;31.10;39.90;;;;;;937241;150;27904;-74
2022/06/08 11:08:04;;;;;;;1.92;0.85;;;31.00;40.10;;;;;;937078;150;27483;-78
2022/06/08 11:10:51;;;;;;;1.12;0.55;;;30.90;40.10;;;;;;936777;150;28348;-78
2022/06/08 11:13:25;;;;;;;1.45;0.60;;;30.80;40.10;;;;;;937197;150;27353;-76
2022/06/08 11:16:00;;;;;;;1.40;0.80;;;30.70;40.20;;;;;;936487;150;27405;-76
2022/06/08 11:18:48;;;;;;;0.75;0.68;;;30.60;40.40;;;;;;931301;150;27424;-77
2022/06/08 11:21:14;;;;;;;2.62;0.90;;;30.60;40.70;;;;;;936369;150;28163;-77
2022/06/08 11:23:46;;;;;;;0.90;0.75;;;30.60;41.00;;;;;;936755;151;27471;-76
2022/06/08 11:26:25;;;;;;;0.82;0.53;;;30.70;40.90;;;;;;936916;150;27451;-77
2022/06/08 11:28:50;;;;;;;1.98;0.78;;;30.90;41.00;;;;;;936857;150;27364;-77
2022/06/08 11:31:30;;;;;;;4.15;0.90;;;31.00;40.90;;;;;;935981;150;27415;-77
2022/06/08 11:34:05;;;;;;;2.08;0.88;;;31.20;40.80;;;;;;936903;150;27311;-77
2022/06/08 11:36:38;;;;;;;1.37;1.00;;;31.50;40.60;;;;;;936110;150;27364;-77
2022/06/08 11:39:05;;;;;;;2.87;1.02;;;31.60;40.20;;;;;;935853;150;27320;-78
2022/06/08 11:41:31;;;;;;;1.77;1.00;;;31.80;39.90;;;;;;929935;151;27346;-78
2022/06/08 11:43:57;;;;;;;2.20;0.80;;;31.90;39.70;;;;;;936813;150;27404;-77
2022/06/08 11:46:24;;;;;;;1.07;0.50;;;32.00;39.50;;;;;;936383;153;27330;-75
2022/06/08 11:48:52;;;;;;;1.82;0.90;;;32.10;39.30;;;;;;936776;150;27387;-77
2022/06/08 11:51:36;;;;;;;1.10;0.80;;;32.20;39.10;;;;;;936762;150;27451;-77
2022/06/08 11:54:15;;;;;;;1.30;0.90;;;32.20;39.20;;;;;;936483;150;27690;-77
2022/06/08 11:57:02;;;;;;;1.07;0.65;;;32.20;39.00;;;;;;936230;150;27432;-78
2022/06/08 11:59:29;;;;;;;0.88;0.62;;;32.10;38.80;;;;;;939611;151;27349;-77
2022/06/08 12:01:55;;;;;;;0.75;0.60;;;32.00;38.30;;;;;;940023;152;27793;-76
2022/06/08 12:04:23;;;;;;;1.65;0.65;;;31.90;38.10;;;;;;939429;152;27373;-77
2022/06/08 12:06:48;;;;;;;1.20;1.07;;;31.80;37.90;;;;;;939846;150;27642;-78
2022/06/08 12:09:15;;;;;;;2.05;0.65;;;31.60;38.00;;;;;;940375;150;27388;-77
2022/06/08 12:11:44;;;;;;;1.60;0.90;;;31.50;38.00;;;;;;939872;150;27637;-76
2022/06/08 12:14:17;;;;;;;2.15;1.02;;;31.40;38.20;;;;;;939980;151;27329;-77
2022/06/08 12:16:55;;;;;;;2.17;0.75;;;31.30;38.60;;;;;;939673;150;27453;-78
2022/06/08 12:19:22;;;;;;;1.12;0.72;;;31.30;38.60;;;;;;912362;150;27464;-77
2022/06/08 12:21:48;;;;;;;1.42;0.68;;;31.20;38.80;;;;;;939246;151;27427;-77
2022/06/08 12:24:15;;;;;;;1.45;0.70;;;31.20;38.80;;;;;;939660;151;27380;-77
2022/06/08 12:26:54;;;;;;;1.37;0.72;;;31.20;38.70;;;;;;940181;151;27908;-76
2022/06/08 12:29:35;;;;;;;1.80;0.70;;;31.20;38.70;;;;;;938324;150;27433;-77
2022/06/08 12:32:07;;;;;;;2.85;0.80;;;31.20;38.70;;;;;;939391;150;27446;-77
2022/06/08 12:34:40;;;;;;;2.02;1.22;;;31.20;38.70;;;;;;939888;150;27344;-77
2022/06/08 12:37:32;;;;;;;1.67;0.50;;;31.20;38.80;;;;;;939262;152;27470;-77
2022/06/08 12:40:00;;;;;;;0.47;0.45;;;31.20;38.90;;;;;;939019;152;28039;-76
2022/06/08 12:42:30;;;;;;;1.52;0.60;;;31.10;38.60;;;;;;935979;150;27380;-77
2022/06/08 12:44:57;;;;;;;1.85;0.72;;;31.10;38.60;;;;;;939796;150;27466;-77
2022/06/08 12:47:26;;;;;;;1.02;0.60;;;31.00;38.60;;;;;;939904;150;27432;-76
2022/06/08 12:49:51;;;;;;;1.65;1.10;;;30.90;38.60;;;;;;939672;150;27918;-77
2022/06/08 12:52:22;;;;;;;1.12;0.70;;;30.70;38.50;;;;;;938541;150;27298;-74
2022/06/08 12:54:48;;;;;;;1.10;0.80;;;30.60;38.60;;;;;;939981;150;27385;-76
2022/06/08 12:57:22;;;;;;;3.20;1.00;;;30.40;38.70;;;;;;939955;151;27375;-78
2022/06/08 12:59:48;;;;;;;0.72;0.68;;;30.20;38.80;;;;;;937577;151;27382;-77
2022/06/08 13:02:17;;;;;;;0.90;0.65;;;30.10;39.00;;;;;;937366;150;27344;-77
2022/06/08 13:04:44;;;;;;;1.65;0.80;;;29.90;39.00;;;;;;936275;150;27350;-77
2022/06/08 13:07:16;;;;;;;1.47;0.70;;;29.80;39.30;;;;;;937002;150;27399;-76
2022/06/08 13:09:44;;;;;;;1.42;0.80;;;29.60;39.50;;;;;;937461;150;27423;-77
2022/06/08 13:12:11;;;;;;;1.92;1.25;;;29.40;39.60;;;;;;936713;150;27475;-78
2022/06/08 13:14:37;;;;;;;0.90;0.60;;;29.20;39.70;;;;;;937103;150;27294;-77
2022/06/08 13:17:03;;;;;;;1.65;0.70;;;29.10;39.90;;;;;;937001;151;27340;-78